Time;durP1;ratioP1;P1;durP2;ratioP2;P2;SDS_P1;SDS_P2;PMS_P1;PMS_P2;Temp;Humidity;BMP_temperature;BMP_pressure;BME280_temperature;BME280_humidity;BME280_pressure;Samples;Min_cycle;Max_cycle;Signal;HPM_P1;HPM_P2
2021/01/13 00:02:54;;;;;;;11.45;1.60;;;;;;;0.76;96.22;100933.31;6322386;28;20052;-72
2021/01/13 00:05:55;;;;;;;9.85;1.10;;;;;;;0.66;96.28;100939.47;6320080;28;20049;-71
2021/01/13 00:08:56;;;;;;;15.77;2.15;;;;;;;0.66;96.31;100934.28;6321747;28;20083;-72
2021/01/13 00:11:58;;;;;;;16.15;2.08;;;;;;;0.64;97.17;100926.56;6322222;28;20044;-73
2021/01/13 00:14:59;;;;;;;18.15;1.73;;;;;;;0.64;97.43;100933.47;6322160;28;20040;-73
2021/01/13 00:18:00;;;;;;;14.63;2.35;;;;;;;0.65;97.16;100940.34;6322179;28;20052;-73
2021/01/13 00:21:02;;;;;;;16.05;2.17;;;;;;;0.62;97.18;100925.72;6322276;28;20083;-73
2021/01/13 00:24:04;;;;;;;15.10;1.73;;;;;;;0.64;97.63;100921.38;6320509;28;20127;-72
2021/01/13 00:27:06;;;;;;;11.38;1.80;;;;;;;0.59;96.89;100930.94;6322319;28;20056;-74
2021/01/13 00:30:07;;;;;;;16.63;1.88;;;;;;;0.65;97.09;100930.84;6322000;28;20051;-73
2021/01/13 00:33:08;;;;;;;9.43;1.50;;;;;;;0.58;97.27;100930.91;6322317;28;20051;-73
2021/01/13 00:36:09;;;;;;;11.18;2.88;;;;;;;0.68;97.03;100924.78;6321599;28;20505;-73
2021/01/13 00:39:10;;;;;;;9.07;1.60;;;;;;;0.70;96.94;100917.88;6321720;28;20051;-73
2021/01/13 00:42:12;;;;;;;10.57;2.03;;;;;;;0.60;96.62;100929.19;6322008;28;20439;-73
2021/01/13 00:45:14;;;;;;;14.40;2.47;;;;;;;0.62;97.30;100925.72;6321865;28;20044;-73
2021/01/13 00:48:15;;;;;;;11.13;1.60;;;;;;;0.60;97.11;100926.59;6320901;28;20052;-73
2021/01/13 00:51:16;;;;;;;15.93;2.22;;;;;;;0.55;97.29;100920.63;6321313;28;20413;-73
2021/01/13 00:54:17;;;;;;;9.98;1.58;;;;;;;0.60;97.06;100924.88;6321801;28;20409;-73
2021/01/13 00:57:19;;;;;;;16.85;2.28;;;;;;;0.53;97.70;100933.53;6321300;28;20051;-73
2021/01/13 01:00:20;;;;;;;12.32;1.58;;;;;;;0.42;97.23;100917.28;6321263;28;20048;-73
2021/01/13 01:03:21;;;;;;;15.63;1.52;;;;;;;0.59;97.20;100928.34;6321696;28;20047;-73
2021/01/13 01:06:22;;;;;;;16.20;1.73;;;;;;;0.58;96.70;100930.91;6321250;28;20113;-73
2021/01/13 01:09:23;;;;;;;10.10;1.60;;;;;;;0.64;95.61;100933.47;6321175;28;20508;-73
2021/01/13 01:12:25;;;;;;;14.25;3.20;;;;;;;0.64;96.49;100939.50;6321354;28;20133;-73
2021/01/13 01:15:26;;;;;;;12.90;1.63;;;;;;;0.67;95.88;100938.59;6320880;28;20040;-73
2021/01/13 01:18:27;;;;;;;17.83;2.20;;;;;;;0.76;95.17;100943.66;6321070;28;20048;-73
2021/01/13 01:21:28;;;;;;;12.73;1.55;;;;;;;0.82;94.80;100948.81;6320482;28;20520;-72
2021/01/13 01:24:29;;;;;;;13.25;1.50;;;;;;;0.68;94.86;100945.47;6321243;28;20043;-74
2021/01/13 01:27:31;;;;;;;10.40;1.63;;;;;;;0.72;95.41;100942.84;6320813;28;20051;-73
2021/01/13 01:30:31;;;;;;;14.68;1.92;;;;;;;0.81;94.19;100944.47;6320544;28;20051;-73
2021/01/13 01:33:32;;;;;;;20.20;1.70;;;;;;;0.66;95.50;100944.63;6321071;28;20578;-73
2021/01/13 01:36:34;;;;;;;12.65;2.55;;;;;;;0.72;94.51;100950.59;6320039;28;20048;-73
2021/01/13 01:39:35;;;;;;;8.98;1.52;;;;;;;0.69;94.30;100940.31;6320735;28;20044;-73
2021/01/13 01:42:36;;;;;;;7.93;1.52;;;;;;;0.74;95.39;100951.47;6320922;28;20048;-73
2021/01/13 01:45:38;;;;;;;10.50;1.50;;;;;;;0.71;94.19;100953.22;6320780;28;20089;-73
2021/01/13 01:48:49;;;;;;;10.88;1.60;;;;;;;0.76;94.66;100948.84;6322706;28;20051;-73
2021/01/13 01:52:04;;;;;;;13.43;1.13;;;;;;;0.66;94.76;100954.97;6326239;28;20052;-73
2021/01/13 01:55:11;;;;;;;15.80;1.73;;;;;;;0.55;94.87;100955.09;6326001;28;20519;-73
2021/01/13 01:58:23;;;;;;;20.42;1.63;;;;;;;0.82;94.30;100948.81;6325737;28;20048;-73
2021/01/13 02:01:30;;;;;;;7.47;1.35;;;;;;;0.73;94.28;100954.06;6325698;28;20052;-73
2021/01/13 02:04:32;;;;;;;15.38;2.03;;;;;;;0.76;94.49;100954.88;6325768;28;20047;-73
2021/01/13 02:07:34;;;;;;;15.45;2.17;;;;;;;0.72;93.95;100950.59;6347642;22;20044;-72
2021/01/13 02:10:35;;;;;;;11.77;1.50;;;;;;;0.62;94.58;100951.56;6334695;28;20059;-73
2021/01/13 02:13:37;;;;;;;7.07;1.20;;;;;;;0.65;95.16;100945.53;6350840;28;20040;-74
2021/01/13 02:16:38;;;;;;;14.75;1.42;;;;;;;0.81;95.01;100952.25;6340028;28;20052;-73
2021/01/13 02:20:04;;;;;;;12.13;1.60;;;;;;;0.68;94.42;100963.56;6350174;28;20070;-73
2021/01/13 02:23:06;;;;;;;13.65;2.47;;;;;;;0.60;94.92;100955.91;6350683;28;20473;-73
2021/01/13 02:26:35;;;;;;;12.05;1.98;;;;;;;0.68;94.53;100955.81;6350354;28;20048;-73
2021/01/13 02:29:39;;;;;;;11.45;1.60;;;;;;;0.86;94.78;100965.13;6313024;28;20047;-73
2021/01/13 02:32:47;;;;;;;8.73;1.52;;;;;;;0.86;93.87;100954.78;6350509;28;20089;-73
2021/01/13 02:36:06;;;;;;;16.92;1.58;;;;;;;0.87;93.77;100964.28;6350462;28;20054;-73
2021/01/13 02:39:08;;;;;;;8.65;1.17;;;;;;;0.85;93.39;100951.34;6350245;28;20113;-73
2021/01/13 02:42:14;;;;;;;13.90;1.20;;;;;;;0.87;94.03;100952.19;6350376;28;20051;-73
2021/01/13 02:45:19;;;;;;;12.05;1.70;;;;;;;0.68;95.29;100950.63;6349690;28;20044;-73
2021/01/13 02:48:20;;;;;;;10.65;1.60;;;;;;;0.95;94.36;100945.22;6349956;28;20047;-73
2021/01/13 02:51:30;;;;;;;16.77;2.08;;;;;;;1.00;93.73;100950.34;6349546;28;20104;-73
2021/01/13 02:54:32;;;;;;;10.68;1.40;;;;;;;0.91;93.11;100964.22;6350090;28;20052;-74
2021/01/13 02:57:37;;;;;;;14.10;3.17;;;;;;;1.03;92.58;100960.63;6349506;28;20059;-74
2021/01/13 03:00:40;;;;;;;13.02;1.67;;;;;;;0.99;93.71;100964.97;6349725;28;20059;-74
2021/01/13 03:03:44;;;;;;;14.40;1.52;;;;;;;1.17;92.36;100968.25;6349683;28;20180;-73
2021/01/13 03:06:48;;;;;;;16.83;2.30;;;;;;;1.09;93.44;100954.53;6349479;28;20058;-73
2021/01/13 03:09:49;;;;;;;13.73;1.60;;;;;;;0.91;93.42;100956.47;6349179;28;20047;-74
2021/01/13 03:12:58;;;;;;;10.82;1.77;;;;;;;0.94;94.17;100947.81;6349446;28;20047;-74
2021/01/13 03:16:00;;;;;;;9.65;1.38;;;;;;;0.98;93.70;100944.31;6349253;28;20122;-74
2021/01/13 03:19:05;;;;;;;11.25;1.67;;;;;;;0.99;93.43;100933.06;6349197;28;20511;-74
2021/01/13 03:22:15;;;;;;;23.65;2.05;;;;;;;0.90;93.49;100931.44;6349159;28;20044;-74
2021/01/13 03:25:21;;;;;;;18.00;3.13;;;;;;;0.74;95.02;100932.50;6349365;28;20065;-74
2021/01/13 03:28:24;;;;;;;14.13;3.40;;;;;;;0.71;95.14;100933.38;6348866;28;20419;-73
2021/01/13 03:31:28;;;;;;;17.88;3.22;;;;;;;0.69;95.63;100929.97;6348849;28;20105;-74
2021/01/13 03:34:30;;;;;;;14.60;2.95;;;;;;;0.63;94.94;100926.56;6349096;28;20048;-73
2021/01/13 03:37:50;;;;;;;15.07;2.05;;;;;;;0.45;95.99;100932.75;6348620;28;20040;-73
2021/01/13 03:40:50;;;;;;;14.40;1.85;;;;;;;0.64;96.35;100936.91;6348624;28;20055;-73
2021/01/13 03:43:53;;;;;;;14.00;1.80;;;;;;;0.73;95.18;100939.41;6348646;28;20094;-73
2021/01/13 03:46:56;;;;;;;7.70;1.33;;;;;;;0.62;94.76;100943.81;6348497;28;20626;-74
2021/01/13 03:50:10;;;;;;;12.07;2.53;;;;;;;0.73;95.27;100951.47;6347834;28;20052;-74
2021/01/13 03:53:12;;;;;;;21.08;1.95;;;;;;;0.85;94.44;100943.56;6348763;28;20044;-73
2021/01/13 03:56:26;;;;;;;9.52;1.60;;;;;;;0.81;94.91;100941.03;6348078;28;20054;-73
2021/01/13 03:59:43;;;;;;;13.82;2.00;;;;;;;0.83;95.08;100947.91;6348108;28;20438;-73
2021/01/13 04:03:06;;;;;;;15.70;1.98;;;;;;;0.93;94.38;100952.13;6348581;28;20059;-73
2021/01/13 04:06:08;;;;;;;27.08;1.80;;;;;;;0.90;94.77;100944.38;6347843;28;20500;-73
2021/01/13 04:09:11;;;;;;;17.73;2.30;;;;;;;0.85;94.64;100938.41;6347858;28;20492;-73
2021/01/13 04:12:14;;;;;;;19.77;2.42;;;;;;;0.81;96.08;100934.13;6347574;28;20083;-73
2021/01/13 04:15:18;;;;;;;20.38;2.13;;;;;;;0.88;95.72;100938.38;6347918;28;20492;-73
2021/01/13 04:18:21;;;;;;;22.85;2.88;;;;;;;0.79;95.18;100938.47;6347654;28;20051;-73
2021/01/13 04:21:22;;;;;;;41.15;3.28;;;;;;;0.84;95.62;100931.53;6347461;28;20047;-73
2021/01/13 04:24:23;;;;;;;13.55;1.63;;;;;;;0.76;95.67;100935.91;6347786;28;20043;-73
2021/01/13 04:27:25;;;;;;;11.68;1.60;;;;;;;0.90;95.90;100928.00;6347404;28;20047;-74
2021/01/13 04:30:27;;;;;;;9.32;1.73;;;;;;;1.01;94.96;100918.41;6347270;28;20055;-73
2021/01/13 04:33:29;;;;;;;12.35;1.85;;;;;;;0.91;95.24;100925.41;6347601;28;20047;-73
2021/01/13 04:36:35;;;;;;;15.55;2.00;;;;;;;0.98;94.96;100921.03;6347223;28;20104;-73
2021/01/13 04:39:37;;;;;;;15.60;1.70;;;;;;;0.90;95.49;100913.34;6347177;28;20048;-74
2021/01/13 04:42:58;;;;;;;15.77;2.50;;;;;;;0.95;95.44;100903.81;6344877;28;20051;-73
2021/01/13 04:46:08;;;;;;;10.35;2.30;;;;;;;0.96;94.39;100917.63;6330109;28;20055;-74
2021/01/13 04:49:10;;;;;;;;;;;;;;;1.03;94.90;100911.47;6322106;28;20055;-73
2021/01/13 04:52:18;;;;;;;28.90;2.47;;;;;;;1.14;94.38;100919.13;6322011;28;19920;-74
2021/01/13 04:55:24;;;;;;;19.15;2.28;;;;;;;1.17;94.48;100917.34;6321797;28;20109;-73
2021/01/13 04:58:56;;;;;;;20.10;2.60;;;;;;;1.04;95.78;100914.91;6332581;28;20221;-73
2021/01/13 05:02:08;;;;;;;11.40;1.60;;;;;;;0.89;97.76;100934.06;6321768;28;20063;-73
2021/01/13 05:05:19;;;;;;;16.05;1.60;;;;;;;0.67;98.48;100923.06;6321511;28;20040;-73
2021/01/13 05:08:28;;;;;;;17.67;2.20;;;;;;;0.45;100.00;100919.81;6321215;28;20051;-73
2021/01/13 05:11:39;;;;;;;20.13;1.92;;;;;;;0.51;100.00;100909.44;6321313;28;20044;-73
2021/01/13 05:14:44;;;;;;;22.77;2.90;;;;;;;0.46;100.00;100900.88;6321305;28;20047;-74
2021/01/13 05:18:08;;;;;;;12.07;1.60;;;;;;;0.40;100.00;100898.34;6321311;28;20059;-73
2021/01/13 05:21:17;;;;;;;21.95;2.60;;;;;;;0.38;100.00;100905.25;6321095;28;20052;-73
2021/01/13 05:24:20;;;;;;;24.73;2.45;;;;;;;0.36;100.00;100891.47;6320590;28;20051;-74
2021/01/13 05:27:42;;;;;;;24.70;2.58;;;;;;;0.60;100.00;100896.44;6321046;28;20047;-73
2021/01/13 05:30:44;;;;;;;14.95;2.10;;;;;;;0.69;100.00;100904.09;6320678;28;20523;-73
2021/01/13 05:33:45;;;;;;;25.70;3.08;;;;;;;0.65;100.00;100901.56;6321317;28;20055;-73
2021/01/13 05:37:17;;;;;;;16.92;2.08;;;;;;;0.63;100.00;100893.78;6324378;28;20488;-75
2021/01/13 05:40:19;;;;;;;10.15;2.42;;;;;;;0.52;100.00;100903.41;6346172;28;20591;-75
2021/01/13 05:43:21;;;;;;;19.05;3.00;;;;;;;0.56;100.00;100893.88;6346265;28;20073;-75
2021/01/13 05:46:23;;;;;;;8.75;1.75;;;;;;;0.46;100.00;100887.97;6346063;28;20511;-75
2021/01/13 05:49:25;;;;;;;26.08;2.60;;;;;;;0.65;100.00;100891.22;6345817;28;20059;-75
2021/01/13 05:52:29;;;;;;;13.88;3.38;;;;;;;0.70;100.00;100884.25;6346142;28;20056;-74
2021/01/13 05:55:31;;;;;;;16.30;2.10;;;;;;;0.78;100.00;100897.13;6346042;28;20043;-73
2021/01/13 05:58:32;;;;;;;15.05;2.17;;;;;;;0.84;100.00;100882.38;6346004;28;20043;-74
2021/01/13 06:01:46;;;;;;;14.88;2.50;;;;;;;0.87;100.00;100887.53;6345584;28;20074;-74
2021/01/13 06:04:48;;;;;;;7.65;1.83;;;;;;;0.82;100.00;100886.72;6346000;28;20044;-74
2021/01/13 06:07:51;;;;;;;4.63;2.05;;;;;;;0.93;100.00;100884.84;6345509;28;20055;-75
2021/01/13 06:10:56;;;;;;;15.70;2.35;;;;;;;0.96;100.00;100882.25;6345481;28;20476;-74
2021/01/13 06:13:57;;;;;;;10.27;2.58;;;;;;;0.76;100.00;100885.03;6345932;28;20044;-74
2021/01/13 06:17:04;;;;;;;18.98;4.30;;;;;;;0.82;100.00;100881.53;6345467;28;20059;-74
2021/01/13 06:20:08;;;;;;;12.85;2.30;;;;;;;0.62;100.00;100881.75;6345644;28;20055;-73
2021/01/13 06:23:12;;;;;;;9.70;2.70;;;;;;;0.67;100.00;100886.88;6345701;28;20047;-73
2021/01/13 06:26:14;;;;;;;11.07;2.80;;;;;;;0.55;100.00;100874.94;6345470;28;20426;-73
2021/01/13 06:29:38;;;;;;;13.73;2.65;;;;;;;0.58;100.00;100876.63;6344210;28;20052;-72
2021/01/13 06:32:52;;;;;;;10.27;2.65;;;;;;;0.70;100.00;100873.91;6336570;28;20047;-73
2021/01/13 06:36:21;;;;;;;10.45;2.90;;;;;;;0.66;100.00;100869.66;6324163;28;20056;-73
2021/01/13 06:39:24;;;;;;;8.83;2.77;;;;;;;0.65;100.00;100876.53;6339427;28;20532;-73
2021/01/13 06:42:29;;;;;;;12.68;2.83;;;;;;;0.63;100.00;100875.69;6350663;28;20047;-73
2021/01/13 06:45:31;;;;;;;12.88;2.28;;;;;;;0.65;100.00;100870.53;6350105;28;20054;-73
2021/01/13 06:48:32;;;;;;;17.80;2.45;;;;;;;0.71;100.00;100873.03;6344619;28;20048;-73
2021/01/13 06:51:35;;;;;;;17.63;2.50;;;;;;;0.61;100.00;100874.00;6349122;28;20126;-74
2021/01/13 06:54:45;;;;;;;15.70;2.50;;;;;;;0.71;100.00;100867.84;6349919;28;20070;-73
2021/01/13 06:57:46;;;;;;;9.48;2.25;;;;;;;0.79;100.00;100872.97;6349581;28;20589;-72
2021/01/13 07:00:48;;;;;;;17.92;2.38;;;;;;;0.88;100.00;100871.13;6349080;28;20051;-72
2021/01/13 07:03:57;;;;;;;11.80;3.22;;;;;;;0.91;100.00;100876.28;6349974;28;20054;-74
2021/01/13 07:07:05;;;;;;;17.20;2.45;;;;;;;0.93;100.00;100865.88;6349157;28;20048;-72
2021/01/13 07:10:11;;;;;;;13.45;2.35;;;;;;;0.86;100.00;100882.34;6349377;28;20139;-73
2021/01/13 07:13:14;;;;;;;16.73;2.45;;;;;;;0.96;100.00;100882.25;6346207;28;20044;-73
2021/01/13 07:16:16;;;;;;;16.25;2.55;;;;;;;1.16;100.00;100881.13;6349374;28;20048;-73
2021/01/13 07:19:17;;;;;;;13.80;2.40;;;;;;;1.07;100.00;100881.25;6349134;28;20052;-73
2021/01/13 07:22:19;;;;;;;11.60;2.33;;;;;;;1.11;100.00;100873.44;6349531;28;20056;-73
2021/01/13 07:25:21;;;;;;;17.17;2.50;;;;;;;1.25;100.00;100884.47;6349121;28;20420;-74
2021/01/13 07:28:23;;;;;;;12.77;2.63;;;;;;;1.20;100.00;100882.81;6348821;28;20058;-74
2021/01/13 07:31:28;;;;;;;10.45;2.60;;;;;;;1.23;100.00;100878.47;6348789;28;20040;-73
2021/01/13 07:34:35;;;;;;;15.77;5.20;;;;;;;1.17;100.00;100878.50;6342935;28;20039;-72
2021/01/13 07:37:46;;;;;;;16.65;3.88;;;;;;;1.25;100.00;100875.84;6330242;28;20105;-71
2021/01/13 07:40:58;;;;;;;12.90;3.55;;;;;;;1.44;100.00;100887.66;6339231;28;20055;-72
2021/01/13 07:44:38;;;;;;;16.85;2.95;;;;;;;1.50;100.00;100897.94;6323535;28;20055;-72
2021/01/13 07:48:20;;;;;;;6.90;2.78;;;;;;;1.51;99.56;100896.22;6322351;28;20059;-71
2021/01/13 07:51:32;;;;;;;11.93;3.00;;;;;;;1.41;100.00;100895.47;6323249;28;20055;-71
2021/01/13 07:54:35;;;;;;;16.75;3.28;;;;;;;1.55;99.64;100904.81;6323281;28;20098;-71
2021/01/13 07:57:45;;;;;;;10.82;3.15;;;;;;;1.46;100.00;100906.63;6335753;28;20048;-71
2021/01/13 08:00:58;;;;;;;11.30;3.33;;;;;;;1.51;99.72;100902.25;6348181;28;20055;-71
2021/01/13 08:04:47;;;;;;;8.27;2.50;;;;;;;1.57;98.91;100883.16;6348500;28;20047;-71
2021/01/13 08:08:06;;;;;;;23.27;3.25;;;;;;;1.46;99.80;100898.88;6344819;22;20056;-72
2021/01/13 08:11:16;;;;;;;19.35;3.10;;;;;;;1.55;99.61;100890.13;6322456;28;20040;-72
2021/01/13 08:14:47;;;;;;;12.73;3.05;;;;;;;1.46;100.00;100896.28;6322645;28;20044;-73
2021/01/13 08:18:27;;;;;;;9.68;2.50;;;;;;;1.69;99.59;100895.94;6307100;28;20048;-72
2021/01/13 08:21:33;;;;;;;10.70;2.40;;;;;;;1.69;99.10;100900.28;6322370;28;20055;-71
2021/01/13 08:24:43;;;;;;;14.15;2.53;;;;;;;1.60;100.00;100877.09;6316915;28;20045;-71
2021/01/13 08:27:55;;;;;;;14.00;2.55;;;;;;;1.77;98.99;100891.53;6296741;28;20121;-71
2021/01/13 08:30:58;;;;;;;7.97;2.03;;;;;;;1.90;98.68;100876.63;6296005;28;20052;-70
2021/01/13 08:34:04;;;;;;;16.55;2.53;;;;;;;1.87;98.82;100868.91;6313127;28;20067;-69
2021/01/13 08:37:06;;;;;;;7.43;2.28;;;;;;;1.87;98.20;100884.47;6317433;28;20048;-70
2021/01/13 08:40:26;;;;;;;17.70;2.45;;;;;;;1.81;98.64;100871.56;6294945;28;20051;-69
2021/01/13 08:43:27;;;;;;;9.35;2.45;;;;;;;1.76;99.10;100887.19;6295370;28;20156;-70
2021/01/13 08:46:38;;;;;;;6.57;2.30;;;;;;;1.90;99.02;100871.44;6294966;28;20056;-69
2021/01/13 08:49:39;;;;;;;11.55;2.15;;;;;;;1.93;98.55;100878.31;6293799;28;20128;-67
2021/01/13 08:52:47;;;;;;;9.65;2.42;;;;;;;1.96;97.35;100875.69;6294957;28;20052;-67
2021/01/13 08:55:53;;;;;;;10.50;2.42;;;;;;;1.98;97.74;100879.94;6294833;28;20497;-67
2021/01/13 08:58:55;;;;;;;12.10;3.22;;;;;;;1.99;97.39;100873.03;6271474;28;20136;-67
2021/01/13 09:02:02;;;;;;;10.43;2.47;;;;;;;2.03;96.66;100872.94;6271760;28;20082;-69
2021/01/13 09:05:04;;;;;;;10.98;1.98;;;;;;;1.99;97.58;100878.22;6271961;28;20053;-68
2021/01/13 09:08:06;;;;;;;14.82;3.28;;;;;;;1.93;98.48;100889.53;6271146;28;20048;-68
2021/01/13 09:11:08;;;;;;;7.78;3.00;;;;;;;1.96;98.10;100878.28;6271289;28;20053;-69
2021/01/13 09:14:17;;;;;;;8.43;2.25;;;;;;;2.00;97.84;100878.22;6271469;28;20056;-68
2021/01/13 09:17:22;;;;;;;15.95;2.83;;;;;;;1.97;98.20;100885.16;6271327;28;20583;-69
2021/01/13 09:20:28;;;;;;;7.47;3.00;;;;;;;1.97;98.31;100874.81;6274834;28;20429;-69
2021/01/13 09:23:30;;;;;;;12.40;3.90;;;;;;;2.06;98.12;100884.16;6296501;28;20053;-68
2021/01/13 09:26:33;;;;;;;13.25;3.10;;;;;;;2.07;98.07;100886.72;6295829;28;20052;-68
2021/01/13 09:29:47;;;;;;;14.13;3.10;;;;;;;2.07;98.52;100883.28;6295731;28;20049;-68
2021/01/13 09:32:53;;;;;;;11.98;2.80;;;;;;;2.04;98.08;100884.16;6296077;28;20492;-68
2021/01/13 09:36:00;;;;;;;10.80;2.90;;;;;;;2.11;97.15;100882.34;6295887;28;20056;-70
2021/01/13 09:39:13;;;;;;;8.52;2.17;;;;;;;2.15;97.43;100892.66;6299040;28;20044;-68
2021/01/13 09:42:16;;;;;;;10.60;2.70;;;;;;;2.16;96.93;100881.38;6320716;28;20117;-68
2021/01/13 09:45:17;;;;;;;7.57;2.65;;;;;;;2.17;96.78;100879.66;6320584;28;20056;-71
2021/01/13 09:48:20;;;;;;;13.07;2.55;;;;;;;2.27;96.85;100874.31;6316440;28;20048;-70
2021/01/13 09:51:26;;;;;;;8.23;2.30;;;;;;;2.10;97.69;100872.88;6295208;28;20047;-71
2021/01/13 09:54:27;;;;;;;13.77;3.25;;;;;;;2.25;96.55;100860.50;6294704;28;20043;-71
2021/01/13 09:57:28;;;;;;;12.75;2.70;;;;;;;2.27;96.43;100855.28;6295024;28;20094;-72
2021/01/13 10:00:35;;;;;;;9.35;2.70;;;;;;;2.44;95.28;100865.34;6296754;28;20469;-70
2021/01/13 10:03:37;;;;;;;10.75;2.90;;;;;;;2.35;95.79;100870.69;6292911;28;20451;-70
2021/01/13 10:06:40;;;;;;;8.43;2.60;;;;;;;2.32;96.35;100871.63;6294363;28;20413;-71
2021/01/13 10:09:43;;;;;;;7.45;2.33;;;;;;;2.28;96.09;100867.38;6297231;28;20063;-71
2021/01/13 10:12:45;;;;;;;7.28;2.70;;;;;;;2.51;95.51;100866.97;6301331;28;20098;-70
2021/01/13 10:15:47;;;;;;;14.38;3.92;;;;;;;2.47;94.97;100875.69;6324157;28;20048;-70
2021/01/13 10:18:51;;;;;;;11.68;2.35;;;;;;;2.50;94.39;100857.47;6296891;28;20053;-76
2021/01/13 10:21:57;;;;;;;10.90;2.58;;;;;;;2.44;94.17;100844.59;6299189;28;20071;-71
2021/01/13 10:24:58;;;;;;;9.10;2.53;;;;;;;2.57;94.14;100847.84;6314476;28;20423;-71
2021/01/13 10:28:01;;;;;;;10.23;2.45;;;;;;;2.66;93.61;100843.31;6324249;28;20048;-71
2021/01/13 10:31:03;;;;;;;12.13;2.58;;;;;;;2.66;93.69;100850.25;6323980;28;20048;-71
2021/01/13 10:34:05;;;;;;;11.27;2.45;;;;;;;2.70;94.05;100836.34;6323910;28;20044;-71
2021/01/13 10:37:06;;;;;;;10.93;2.53;;;;;;;2.53;94.11;100837.50;6324375;28;20048;-71
2021/01/13 10:40:09;;;;;;;13.32;2.13;;;;;;;2.76;93.24;100825.81;6324739;28;20570;-70
2021/01/13 10:43:10;;;;;;;13.68;2.47;;;;;;;2.54;94.96;100828.88;6301523;28;20055;-69
2021/01/13 10:46:11;;;;;;;16.73;2.95;;;;;;;2.39;97.12;100833.47;6302056;28;20052;-72
2021/01/13 10:49:20;;;;;;;12.35;2.53;;;;;;;2.48;97.01;100839.34;6299091;28;20098;-70
2021/01/13 10:52:22;;;;;;;21.17;3.05;;;;;;;2.36;97.64;100823.13;6299660;28;20052;-71
2021/01/13 10:55:25;;;;;;;13.23;2.97;;;;;;;2.53;96.75;100819.34;6299372;28;20048;-69
2021/01/13 10:58:27;;;;;;;13.52;3.97;;;;;;;2.51;96.36;100833.25;6299440;28;20048;-70
2021/01/13 11:01:30;;;;;;;23.33;2.53;;;;;;;2.51;96.88;100821.13;6298979;28;20072;-69
2021/01/13 11:04:35;;;;;;;12.30;2.45;;;;;;;2.55;96.88;100824.53;6299599;28;20485;-71
2021/01/13 11:07:36;;;;;;;19.75;2.75;;;;;;;2.57;96.90;100816.69;6299075;28;20055;-70
2021/01/13 11:10:38;;;;;;;16.50;2.80;;;;;;;2.44;97.58;100798.78;6298744;28;20057;-72
2021/01/13 11:13:44;;;;;;;12.07;2.53;;;;;;;2.45;98.05;100797.91;6298936;28;20045;-71
2021/01/13 11:16:59;;;;;;;17.00;3.08;;;;;;;2.39;97.32;100787.63;6298742;28;20105;-71
2021/01/13 11:20:04;;;;;;;16.60;2.83;;;;;;;2.47;97.70;100795.28;6297691;28;20497;-71
2021/01/13 11:23:06;;;;;;;20.38;3.03;;;;;;;2.71;96.32;100786.16;6298725;28;20052;-70
2021/01/13 11:26:08;;;;;;;15.38;2.40;;;;;;;2.74;96.29;100788.69;6298535;28;20048;-71
2021/01/13 11:29:09;;;;;;;14.57;2.72;;;;;;;2.69;96.62;100781.00;6298009;28;20048;-71
2021/01/13 11:32:14;;;;;;;12.23;2.78;;;;;;;2.90;95.60;100784.88;6298890;28;20409;-71
2021/01/13 11:35:24;;;;;;;19.02;4.50;;;;;;;2.93;95.26;100766.66;6298457;28;20444;-71
2021/01/13 11:38:57;;;;;;;20.83;2.67;;;;;;;3.16;92.57;100762.69;6298491;28;20052;-80
2021/01/13 11:42:12;;;;;;;14.23;2.15;;;;;;;3.21;92.60;100779.88;6273539;28;20205;-72
2021/01/13 11:45:16;;;;;;;12.25;3.03;;;;;;;3.07;92.57;100755.09;6273727;28;20044;-71
2021/01/13 11:48:24;;;;;;;10.95;2.50;;;;;;;3.00;93.37;100744.88;6321053;28;20413;-71
2021/01/13 11:51:31;;;;;;;10.52;2.35;;;;;;;3.03;93.91;100741.34;6323020;28;20059;-70
2021/01/13 11:54:32;;;;;;;16.10;3.42;;;;;;;3.11;92.88;100736.84;6323508;28;20476;-70
2021/01/13 11:57:34;;;;;;;18.00;3.08;;;;;;;3.14;93.43;100739.38;6322448;28;20048;-70
2021/01/13 12:00:40;;;;;;;21.45;3.15;;;;;;;3.31;92.53;100724.22;6322610;28;20139;-70
2021/01/13 12:03:41;;;;;;;15.85;2.25;;;;;;;3.46;91.51;100729.97;6321912;28;20086;-72
2021/01/13 12:06:54;;;;;;;16.35;2.03;;;;;;;3.27;91.63;100720.03;6322314;28;20043;-72
2021/01/13 12:10:08;;;;;;;12.88;2.20;;;;;;;3.28;91.97;100713.94;6272711;28;20045;-72
2021/01/13 12:13:10;;;;;;;10.70;1.80;;;;;;;3.31;90.17;100708.63;6272951;28;20073;-73
2021/01/13 12:16:16;;;;;;;13.05;1.88;;;;;;;3.41;89.55;100695.47;6281602;28;20055;-72
2021/01/13 12:19:34;;;;;;;11.60;1.38;;;;;;;3.42;89.47;100703.22;6297160;28;20048;-72
2021/01/13 12:22:36;;;;;;;14.35;2.42;;;;;;;3.43;87.96;100689.31;6297564;28;20438;-70
2021/01/13 12:25:37;;;;;;;19.75;1.80;;;;;;;3.52;88.08;100675.25;6297057;28;20424;-73
2021/01/13 12:28:38;;;;;;;14.45;1.67;;;;;;;3.43;88.56;100684.13;6296755;28;20059;-73
2021/01/13 12:31:40;;;;;;;10.38;2.38;;;;;;;3.39;88.59;100681.63;6296497;28;20080;-72
2021/01/13 12:34:42;;;;;;;10.90;2.08;;;;;;;3.43;89.15;100680.69;6296975;28;20051;-71
2021/01/13 12:37:48;;;;;;;12.07;2.00;;;;;;;3.53;88.59;100669.16;6296289;28;20048;-69
2021/01/13 12:40:49;;;;;;;16.85;2.20;;;;;;;3.50;88.74;100670.09;6296759;28;20044;-68
2021/01/13 12:43:51;;;;;;;24.35;2.10;;;;;;;3.51;88.04;100661.41;6296299;28;20087;-69
2021/01/13 12:46:53;;;;;;;12.32;3.05;;;;;;;3.58;88.16;100651.69;6295090;28;20045;-68
2021/01/13 12:49:55;;;;;;;15.35;2.83;;;;;;;3.54;87.95;100650.06;6293223;28;20067;-73
2021/01/13 12:52:57;;;;;;;12.82;1.80;;;;;;;3.49;88.77;100647.59;6296597;28;20432;-72
2021/01/13 12:55:57;;;;;;;10.85;1.80;;;;;;;3.52;87.64;100655.31;6296151;28;20437;-73
2021/01/13 12:59:00;;;;;;;15.55;2.47;;;;;;;3.58;88.60;100643.06;6296090;28;20052;-69
2021/01/13 13:02:01;;;;;;;14.38;1.88;;;;;;;3.25;91.10;100641.28;6296705;28;20060;-73
2021/01/13 13:05:02;;;;;;;14.93;2.40;;;;;;;3.23;91.53;100635.28;6295993;28;20543;-72
2021/01/13 13:08:04;;;;;;;17.48;3.05;;;;;;;3.20;92.25;100640.53;6295867;28;20052;-71
2021/01/13 13:11:08;;;;;;;9.63;1.90;;;;;;;3.25;91.79;100619.66;6295953;28;20182;-69
2021/01/13 13:14:12;;;;;;;13.80;2.08;;;;;;;3.21;91.98;100615.44;6295695;28;20501;-66
2021/01/13 13:17:12;;;;;;;10.95;1.90;;;;;;;3.22;92.74;100606.75;6295894;28;20048;-69
2021/01/13 13:20:13;;;;;;;14.80;2.38;;;;;;;3.31;91.81;100596.13;6295842;28;20056;-69
2021/01/13 13:23:16;;;;;;;16.75;2.17;;;;;;;3.37;91.16;100605.50;6296096;28;20516;-70
2021/01/13 13:26:18;;;;;;;16.55;1.90;;;;;;;3.39;90.56;100604.56;6295731;28;20070;-70
2021/01/13 13:29:19;;;;;;;11.32;2.40;;;;;;;3.27;90.36;100605.75;6294327;28;20044;-70
2021/01/13 13:32:20;;;;;;;13.48;1.80;;;;;;;3.36;89.79;100601.19;6294055;28;20058;-70
2021/01/13 13:35:21;;;;;;;14.85;2.22;;;;;;;3.17;90.83;100591.28;6295856;28;20398;-72
2021/01/13 13:38:22;;;;;;;13.00;2.10;;;;;;;3.33;89.91;100594.34;6295483;28;20501;-69
2021/01/13 13:41:24;;;;;;;19.92;1.95;;;;;;;3.23;89.97;100595.50;6295551;28;20094;-70
2021/01/13 13:44:29;;;;;;;10.55;1.92;;;;;;;3.16;90.57;100606.91;6294468;28;20048;-70
2021/01/13 13:47:29;;;;;;;16.20;2.10;;;;;;;3.21;88.99;100589.47;6295069;28;20457;-75
2021/01/13 13:50:30;;;;;;;11.40;1.80;;;;;;;3.20;89.78;100588.63;6294657;28;20048;-71
2021/01/13 13:53:32;;;;;;;9.05;1.65;;;;;;;3.33;89.56;100586.56;6295596;28;20075;-69
2021/01/13 13:56:34;;;;;;;6.90;1.65;;;;;;;3.34;89.35;100582.22;6294709;28;20049;-70
2021/01/13 13:59:35;;;;;;;13.00;2.45;;;;;;;3.37;89.90;100572.59;6294913;28;20075;-71
2021/01/13 14:02:36;;;;;;;14.88;1.77;;;;;;;3.29;89.97;100561.56;6295146;28;20110;-70
2021/01/13 14:05:36;;;;;;;14.10;2.10;;;;;;;3.19;89.94;100553.16;6294762;28;20048;-69
2021/01/13 14:08:40;;;;;;;16.02;2.58;;;;;;;3.22;90.56;100534.88;6294564;28;20056;-67
2021/01/13 14:11:41;;;;;;;10.18;1.70;;;;;;;3.31;90.61;100529.44;6294584;28;20052;-69
2021/01/13 14:14:42;;;;;;;14.88;2.45;;;;;;;3.31;90.23;100526.84;6339051;22;20048;-73
2021/01/13 14:17:44;;;;;;;10.57;1.73;;;;;;;3.27;89.70;100509.66;6334232;28;20047;-75
2021/01/13 14:20:45;;;;;;;11.13;2.30;;;;;;;3.38;89.85;100524.94;6332881;28;20081;-74
2021/01/13 14:23:47;;;;;;;8.82;1.20;;;;;;;3.38;88.79;100514.56;6335314;28;20056;-74